West Yellowstone, Montana
Current Conditions -  °F | °C
As of 3:56 PM on Tuesday 27 Jan 2015 (Local Time) from KDIJ Reporting Station
Few Clouds Few Clouds  
Wind Chill:   Ceiling: Unl
Heat Index:   Visibility: 10mi
Dew Point: -3°   Wind: 7mph
Humidity: 55%   Direction: 330°NNW
Pressure: 30.16"   Gusts: NA
Location:  44.66°N, 111.1°W
Report Text: KDIJ 272256Z AUTO 33006KT 10SM FEW100 05/M03 A3016 RMK AO2 T00501033 SLP198
Loading
Personal Weather Stations






























Interactive Weather Map New forecast layout! Learn more

10-Day Weather Forecast

Advertisements
Track Severe Weather on mobile